Time;durP1;ratioP1;P1;durP2;ratioP2;P2;SDS_P1;SDS_P2;PMS_P1;PMS_P2;Temp;Humidity;BMP_temperature;BMP_pressure;BME280_temperature;BME280_humidity;BME280_pressure;Samples;Min_cycle;Max_cycle;Signal;HPM_P1;HPM_P2
2022/05/05 00:04:32;;;;;;;18.92;11.85;;;;;;;;;;10444623;28;20028;-69
2022/05/05 00:09:32;;;;;;;24.20;10.85;;;;;;;;;;10466237;28;20524;-74
2022/05/05 00:14:32;;;;;;;20.00;12.23;;;;;;;;;;10484833;28;20048;-72
2022/05/05 00:19:34;;;;;;;22.20;12.63;;;;;;;;;;10468019;28;20074;-71
2022/05/05 00:24:34;;;;;;;19.52;10.68;;;;;;;;;;10467874;28;20367;-73
2022/05/05 00:29:34;;;;;;;14.83;10.43;;;;;;;;;;10467207;28;20500;-68
2022/05/05 00:34:35;;;;;;;17.50;9.93;;;;;;;;;;10432854;28;20137;-69
2022/05/05 00:39:35;;;;;;;10.40;8.07;;;;;;;;;;10442434;28;20021;-69
2022/05/05 00:44:36;;;;;;;13.82;7.65;;;;;;;;;;10442429;28;20025;-69
2022/05/05 00:49:36;;;;;;;11.23;7.93;;;;;;;;;;10426691;28;20029;-69
2022/05/05 00:54:38;;;;;;;12.57;7.85;;;;;;;;;;10442679;28;20028;-70
2022/05/05 00:59:40;;;;;;;13.77;8.60;;;;;;;;;;10425251;28;20025;-74
2022/05/05 01:04:41;;;;;;;14.95;7.90;;;;;;;;;;10442623;28;20531;-74
2022/05/05 01:09:41;;;;;;;18.30;8.00;;;;;;;;;;10441664;28;20021;-76
2022/05/05 01:14:42;;;;;;;15.75;8.55;;;;;;;;;;10458327;28;20025;-74
2022/05/05 01:19:42;;;;;;;17.67;8.75;;;;;;;;;;10442266;28;20017;-74
2022/05/05 01:30:02;;;;;;;12.85;6.97;;;;;;;;;;10443384;28;20411;-70
2022/05/05 01:35:02;;;;;;;19.10;7.55;;;;;;;;;;10443816;28;20017;-72
2022/05/05 01:40:02;;;;;;;7.07;5.67;;;;;;;;;;10449573;28;20397;-70
2022/05/05 01:45:03;;;;;;;7.30;4.85;;;;;;;;;;10448907;28;20393;-73
2022/05/05 01:50:03;;;;;;;9.45;4.78;;;;;;;;;;10448588;28;20036;-75
2022/05/05 01:55:04;;;;;;;5.32;4.53;;;;;;;;;;10449541;28;20025;-73
2022/05/05 02:00:05;;;;;;;4.65;3.85;;;;;;;;;;10465223;28;20017;-74
2022/05/05 02:05:06;;;;;;;9.27;4.70;;;;;;;;;;10449427;28;20020;-74
2022/05/05 02:10:07;;;;;;;6.72;4.20;;;;;;;;;;10464892;28;20016;-70
2022/05/05 02:15:08;;;;;;;5.30;4.22;;;;;;;;;;10447760;28;20071;-75
2022/05/05 02:20:11;;;;;;;6.60;4.60;;;;;;;;;;10464403;28;20025;-73
2022/05/05 02:25:11;;;;;;;5.90;4.13;;;;;;;;;;10446991;28;20072;-74
2022/05/05 02:30:12;;;;;;;6.67;4.97;;;;;;;;;;10441670;28;20123;-76
2022/05/05 02:35:12;;;;;;;5.53;4.90;;;;;;;;;;10441408;28;20581;-69
2022/05/05 02:40:12;;;;;;;7.07;4.90;;;;;;;;;;10462032;28;20032;-74
2022/05/05 02:45:12;;;;;;;8.40;5.28;;;;;;;;;;10461144;28;20500;-73
2022/05/05 02:50:13;;;;;;;10.00;5.38;;;;;;;;;;10444010;28;20059;-73
2022/05/05 02:55:13;;;;;;;7.50;5.20;;;;;;;;;;10410593;28;20493;-74
2022/05/05 03:00:14;;;;;;;6.05;4.00;;;;;;;;;;10419364;28;20473;-70
2022/05/05 03:05:14;;;;;;;4.70;3.83;;;;;;;;;;10442288;28;20017;-73
2022/05/05 03:10:15;;;;;;;10.10;6.07;;;;;;;;;;10423594;28;20025;-71
2022/05/05 03:15:15;;;;;;;9.57;6.53;;;;;;;;;;10385202;28;20017;-69
2022/05/05 03:20:16;;;;;;;9.63;6.03;;;;;;;;;;10419431;28;20273;-70
2022/05/05 03:25:16;;;;;;;11.00;6.90;;;;;;;;;;10388001;28;1176053;-70
2022/05/05 03:30:16;;;;;;;11.30;6.53;;;;;;;;;;10437945;28;20039;-70
2022/05/05 03:35:17;;;;;;;9.63;6.47;;;;;;;;;;10411318;28;20025;-70
2022/05/05 03:40:17;;;;;;;9.65;6.20;;;;;;;;;;10426484;28;20255;-70
2022/05/05 03:45:18;;;;;;;11.80;6.55;;;;;;;;;;10435905;28;20099;-75
2022/05/05 03:50:18;;;;;;;11.63;6.70;;;;;;;;;;10432817;28;20029;-70
2022/05/05 03:55:18;;;;;;;7.50;5.82;;;;;;;;;;10402488;28;20025;-70
2022/05/05 04:00:20;;;;;;;12.55;5.53;;;;;;;;;;10411885;28;20039;-70
2022/05/05 04:05:20;;;;;;;23.40;9.20;;;;;;;;;;10442578;28;20009;-70
2022/05/05 04:10:21;;;;;;;19.77;9.25;;;;;;;;;;10409207;28;20436;-70
2022/05/05 04:15:22;;;;;;;33.25;12.80;;;;;;;;;;10418512;28;20617;-70
2022/05/05 04:20:22;;;;;;;33.75;11.68;;;;;;;;;;10425887;28;20021;-72
2022/05/05 04:25:22;;;;;;;27.40;11.60;;;;;;;;;;10425461;28;20044;-72
2022/05/05 04:30:23;;;;;;;30.65;11.38;;;;;;;;;;10424713;28;20032;-71
2022/05/05 04:35:23;;;;;;;33.20;12.38;;;;;;;;;;10434040;28;20132;-69
2022/05/05 04:40:24;;;;;;;34.03;14.05;;;;;;;;;;10431353;28;20082;-70
2022/05/05 04:45:24;;;;;;;30.17;15.38;;;;;;;;;;10427708;28;20017;-75
2022/05/05 04:50:24;;;;;;;26.37;12.73;;;;;;;;;;10429458;28;20048;-75
2022/05/05 04:55:25;;;;;;;12.17;7.93;;;;;;;;;;10416041;28;20025;-71
2022/05/05 05:00:25;;;;;;;11.60;5.57;;;;;;;;;;10442184;28;20086;-71
2022/05/05 05:05:25;;;;;;;8.00;4.30;;;;;;;;;;10425083;28;20416;-71
2022/05/05 05:10:26;;;;;;;12.48;4.70;;;;;;;;;;10430312;28;20565;-71
2022/05/05 05:15:26;;;;;;;7.65;4.90;;;;;;;;;;10433709;28;20675;-70
2022/05/05 05:20:26;;;;;;;7.85;5.13;;;;;;;;;;10430864;28;20029;-77
2022/05/05 05:25:27;;;;;;;12.70;4.78;;;;;;;;;;10431807;28;20052;-72
2022/05/05 05:30:27;;;;;;;9.63;5.47;;;;;;;;;;10431334;28;20017;-72
2022/05/05 05:35:27;;;;;;;8.77;5.78;;;;;;;;;;10430827;28;20291;-70
2022/05/05 05:40:28;;;;;;;12.33;6.43;;;;;;;;;;10431763;28;20029;-70
2022/05/05 05:45:28;;;;;;;10.70;6.32;;;;;;;;;;10414371;28;20036;-77
2022/05/05 05:50:30;;;;;;;16.00;8.07;;;;;;;;;;10437987;28;20036;-77
2022/05/05 05:55:31;;;;;;;15.52;6.25;;;;;;;;;;10437402;28;20029;-75
2022/05/05 06:00:32;;;;;;;11.15;6.45;;;;;;;;;;10437153;28;20333;-73
2022/05/05 06:05:33;;;;;;;15.68;6.68;;;;;;;;;;10421893;28;20495;-72
2022/05/05 06:10:33;;;;;;;17.75;8.10;;;;;;;;;;10433406;28;20036;-70
2022/05/05 06:15:33;;;;;;;15.98;8.30;;;;;;;;;;10434050;28;20108;-72
2022/05/05 06:20:34;;;;;;;16.67;8.50;;;;;;;;;;10420377;28;20022;-70
2022/05/05 06:25:34;;;;;;;21.67;8.87;;;;;;;;;;10421475;28;20055;-74
2022/05/05 06:30:34;;;;;;;21.92;12.63;;;;;;;;;;10419236;28;20033;-74
2022/05/05 06:35:36;;;;;;;29.15;10.48;;;;;;;;;;10417047;28;20021;-71
2022/05/05 06:40:37;;;;;;;15.18;7.93;;;;;;;;;;10415895;28;20021;-71
2022/05/05 06:45:37;;;;;;;19.63;8.67;;;;;;;;;;10434668;28;20082;-71
2022/05/05 06:50:37;;;;;;;21.60;9.43;;;;;;;;;;10429014;28;20029;-71
2022/05/05 06:55:37;;;;;;;17.02;9.32;;;;;;;;;;10446294;28;20488;-71
2022/05/05 07:05:57;;;;;;;17.17;8.75;;;;;;;;;;10410857;28;20033;-71
2022/05/05 07:10:57;;;;;;;17.70;9.93;;;;;;;;;;10389521;28;20022;-71
2022/05/05 07:15:57;;;;;;;16.27;8.90;;;;;;;;;;10388913;28;20025;-71
2022/05/05 07:20:58;;;;;;;14.80;8.82;;;;;;;;;;10388240;28;20042;-75
2022/05/05 07:25:58;;;;;;;24.03;8.83;;;;;;;;;;10405134;28;20038;-71
2022/05/05 07:30:58;;;;;;;18.90;9.60;;;;;;;;;;10370639;28;20021;-75
2022/05/05 07:35:59;;;;;;;17.60;9.17;;;;;;;;;;10388742;28;20030;-75
2022/05/05 07:40:59;;;;;;;16.60;8.40;;;;;;;;;;10464104;28;20847;-75
2022/05/05 07:45:59;;;;;;;19.30;8.77;;;;;;;;;;10468026;28;20316;-72
2022/05/05 07:51:00;;;;;;;17.75;8.52;;;;;;;;;;10486616;28;20506;-71
2022/05/05 07:56:00;;;;;;;21.27;8.02;;;;;;;;;;10469813;28;20017;-70
2022/05/05 08:01:00;;;;;;;13.40;8.10;;;;;;;;;;10434360;28;20112;-72
2022/05/05 08:06:01;;;;;;;13.80;7.65;;;;;;;;;;10428025;28;20021;-71
2022/05/05 08:11:02;;;;;;;13.23;7.28;;;;;;;;;;10386835;28;20112;-74
2022/05/05 08:16:02;;;;;;;14.52;7.43;;;;;;;;;;10403467;28;20048;-73
2022/05/05 08:21:02;;;;;;;14.55;7.30;;;;;;;;;;10385883;28;20130;-71
2022/05/05 08:31:21;;;;;;;15.23;7.75;;;;;;;;;;10389463;28;20489;-69
2022/05/05 08:36:22;;;;;;;16.10;7.30;;;;;;;;;;10386101;28;20029;-72
2022/05/05 08:41:22;;;;;;;15.88;6.93;;;;;;;;;;10411938;28;20043;-76
2022/05/05 08:46:23;;;;;;;11.32;6.28;;;;;;;;;;10385508;28;20021;-71
2022/05/05 08:51:25;;;;;;;13.55;6.18;;;;;;;;;;10402164;28;20026;-72
2022/05/05 08:56:25;;;;;;;10.30;5.13;;;;;;;;;;10385758;28;20029;-75
2022/05/05 09:01:27;;;;;;;14.88;5.22;;;;;;;;;;10403159;28;20401;-76
2022/05/05 09:06:39;;;;;;;10.90;4.15;;;;;;;;;;10385164;28;20401;-73
2022/05/05 09:11:40;;;;;;;8.65;4.65;;;;;;;;;;10384708;28;20029;-73
2022/05/05 09:16:46;;;;;;;6.35;4.25;;;;;;;;;;10384825;28;20017;-71
2022/05/05 09:21:47;;;;;;;7.38;3.70;;;;;;;;;;10384551;28;20041;-74
2022/05/05 09:26:47;;;;;;;8.67;3.73;;;;;;;;;;10401074;28;20444;-73
2022/05/05 09:31:48;;;;;;;9.82;3.95;;;;;;;;;;10384840;28;20372;-74
2022/05/05 09:36:48;;;;;;;10.43;3.50;;;;;;;;;;10401358;28;20037;-70
2022/05/05 09:41:51;;;;;;;7.57;3.38;;;;;;;;;;10384625;28;20021;-71
2022/05/05 09:46:51;;;;;;;7.45;3.30;;;;;;;;;;10368301;28;20404;-75
2022/05/05 10:07:57;;;;;;;4.53;2.90;;;;;;;;;;10386008;28;20465;-73
2022/05/05 10:12:58;;;;;;;9.33;2.77;;;;;;;;;;10390984;28;20108;-70
2022/05/05 10:18:03;;;;;;;6.60;3.17;;;;;;;;;;10408626;28;20117;-71
2022/05/05 10:23:09;;;;;;;8.88;2.83;;;;;;;;;;10390623;28;20132;-74
2022/05/05 10:28:28;;;;;;;5.32;2.10;;;;;;;;;;10410424;28;20503;-71
2022/05/05 10:33:47;;;;;;;4.90;2.30;;;;;;;;;;10427694;28;20577;-71
2022/05/05 10:38:49;;;;;;;5.88;2.10;;;;;;;;;;10435052;28;20030;-74
2022/05/05 10:44:09;;;;;;;7.05;2.30;;;;;;;;;;10423433;28;20025;-71
2022/05/05 10:49:28;;;;;;;4.85;1.52;;;;;;;;;;10430816;28;20032;-72
2022/05/05 10:54:29;;;;;;;5.07;2.03;;;;;;;;;;10430851;28;20504;-71
2022/05/05 10:59:49;;;;;;;4.18;1.80;;;;;;;;;;10447039;28;20025;-72
2022/05/05 11:04:49;;;;;;;4.05;1.63;;;;;;;;;;10430076;28;20447;-72
2022/05/05 11:09:49;;;;;;;3.30;1.63;;;;;;;;;;10445837;28;20025;-71
2022/05/05 11:25:32;;;;;;;2.80;2.10;;;;;;;;;;10447688;28;20056;-71
2022/05/05 11:30:34;;;;;;;4.18;2.35;;;;;;;;;;10428855;28;20029;-71
2022/05/05 11:35:34;;;;;;;2.67;2.10;;;;;;;;;;10446490;28;20158;-70
2022/05/05 11:40:35;;;;;;;2.70;1.80;;;;;;;;;;10446481;28;20021;-71
2022/05/05 11:45:37;;;;;;;3.63;2.10;;;;;;;;;;10428435;28;20021;-71
2022/05/05 11:50:40;;;;;;;6.03;1.90;;;;;;;;;;10444649;28;20021;-70
2022/05/05 11:55:40;;;;;;;3.22;1.40;;;;;;;;;;10412266;28;20017;-72
2022/05/05 12:06:00;;;;;;;5.28;1.98;;;;;;;;;;10446270;28;20059;-72
2022/05/05 12:11:03;;;;;;;2.20;1.43;;;;;;;;;;10427608;28;20111;-71
2022/05/05 12:16:04;;;;;;;1.83;1.70;;;;;;;;;;10445502;28;20263;-72
2022/05/05 12:21:04;;;;;;;3.72;1.73;;;;;;;;;;10426550;28;20041;-75
2022/05/05 12:26:04;;;;;;;3.93;1.63;;;;;;;;;;10427377;28;20025;-74
2022/05/05 12:31:19;;;;;;;1.30;1.20;;;;;;;;;;10443335;28;20035;-71
2022/05/05 12:36:26;;;;;;;1.60;1.50;;;;;;;;;;10427031;28;20036;-73
2022/05/05 12:41:27;;;;;;;2.57;1.20;;;;;;;;;;10445314;28;20029;-75
2022/05/05 12:46:27;;;;;;;4.25;1.30;;;;;;;;;;10426579;28;20188;-71
2022/05/05 12:51:32;;;;;;;4.00;1.80;;;;;;;;;;10444292;28;20036;-71
2022/05/05 13:01:52;;;;;;;2.83;1.80;;;;;;;;;;10444569;28;20017;-71
2022/05/05 13:06:52;;;;;;;1.63;1.52;;;;;;;;;;10409649;28;20036;-74
2022/05/05 13:11:53;;;;;;;4.10;1.77;;;;;;;;;;10426317;28;20021;-71
2022/05/05 13:16:53;;;;;;;2.20;2.00;;;;;;;;;;10425796;28;20032;-70
2022/05/05 13:21:54;;;;;;;1.52;1.42;;;;;;;;;;10409943;28;20049;-72
2022/05/05 13:26:54;;;;;;;2.05;1.20;;;;;;;;;;10426034;28;20025;-74
2022/05/05 13:31:56;;;;;;;3.97;1.60;;;;;;;;;;10447069;28;20021;-75
2022/05/05 13:36:56;;;;;;;7.75;1.83;;;;;;;;;;10450106;28;20126;-71
2022/05/05 13:41:56;;;;;;;2.47;1.80;;;;;;;;;;10433100;28;20565;-71
2022/05/05 13:46:57;;;;;;;2.22;1.50;;;;;;;;;;10433254;28;20481;-71
2022/05/05 13:51:57;;;;;;;5.90;1.60;;;;;;;;;;10433123;28;20052;-68
2022/05/05 13:56:57;;;;;;;3.10;1.60;;;;;;;;;;10430351;28;20111;-73
2022/05/05 14:01:58;;;;;;;2.72;1.30;;;;;;;;;;10430613;28;20025;-70
2022/05/05 14:07:00;;;;;;;4.78;2.60;;;;;;;;;;10437088;28;20051;-71
2022/05/05 14:12:13;;;;;;;3.60;1.90;;;;;;;;;;10420141;23;20362;-70
2022/05/05 14:17:13;;;;;;;2.65;1.67;;;;;;;;;;10409526;28;20452;-69
2022/05/05 14:22:14;;;;;;;1.73;1.60;;;;;;;;;;10395382;28;20029;-74
2022/05/05 14:27:14;;;;;;;4.25;1.95;;;;;;;;;;10429474;28;20543;-71
2022/05/05 14:32:14;;;;;;;5.57;2.05;;;;;;;;;;10399349;28;20120;-77
2022/05/05 14:37:14;;;;;;;2.17;1.80;;;;;;;;;;10389744;28;20029;-74
2022/05/05 14:42:15;;;;;;;3.85;2.13;;;;;;;;;;10389813;28;20021;-70
2022/05/05 14:47:15;;;;;;;5.13;2.15;;;;;;;;;;10390617;28;20036;-77
2022/05/05 14:52:16;;;;;;;3.85;2.25;;;;;;;;;;10389142;28;20088;-70
2022/05/05 14:57:20;;;;;;;2.80;1.85;;;;;;;;;;10407070;28;20027;-70
2022/05/05 15:02:20;;;;;;;4.18;1.92;;;;;;;;;;10389690;28;20112;-69
2022/05/05 15:07:21;;;;;;;2.92;2.28;;;;;;;;;;10388625;28;20033;-69
2022/05/05 15:12:21;;;;;;;10.07;2.90;;;;;;;;;;10388843;28;20126;-70
2022/05/05 15:17:21;;;;;;;3.10;1.40;;;;;;;;;;10388772;28;20020;-74
2022/05/05 15:22:22;;;;;;;2.30;1.70;;;;;;;;;;10388233;28;20272;-70
2022/05/05 15:27:22;;;;;;;3.72;1.98;;;;;;;;;;10388414;28;20025;-69
2022/05/05 15:32:29;;;;;;;5.45;1.92;;;;;;;;;;10405653;28;20715;-75
2022/05/05 15:37:30;;;;;;;4.88;2.30;;;;;;;;;;10405396;28;20022;-70
2022/05/05 15:42:30;;;;;;;4.72;2.70;;;;;;;;;;10387362;28;20029;-72
2022/05/05 15:47:30;;;;;;;5.00;2.43;;;;;;;;;;10388059;28;20547;-69
2022/05/05 15:52:37;;;;;;;3.97;2.73;;;;;;;;;;10386571;28;20276;-72
2022/05/05 15:57:37;;;;;;;4.25;2.10;;;;;;;;;;10386855;28;20268;-74
2022/05/05 16:02:38;;;;;;;3.63;2.13;;;;;;;;;;10387181;28;20099;-68
2022/05/05 16:07:38;;;;;;;3.22;2.00;;;;;;;;;;10386644;28;20045;-73
2022/05/05 16:12:39;;;;;;;3.90;1.83;;;;;;;;;;10404192;28;20483;-70
2022/05/05 16:17:40;;;;;;;2.97;2.00;;;;;;;;;;10370308;28;20025;-70
2022/05/05 16:22:41;;;;;;;5.18;2.30;;;;;;;;;;10386661;28;20029;-70
2022/05/05 16:33:00;;;;;;;7.47;2.13;;;;;;;;;;10403807;28;20108;-70
2022/05/05 16:38:01;;;;;;;5.57;2.72;;;;;;;;;;10403118;28;20025;-73
2022/05/05 16:43:03;;;;;;;6.65;2.75;;;;;;;;;;10385794;28;20096;-73
2022/05/05 16:48:03;;;;;;;4.78;2.60;;;;;;;;;;10403670;28;20037;-72
2022/05/05 16:53:04;;;;;;;4.57;2.55;;;;;;;;;;10402939;28;20394;-72
2022/05/05 16:58:04;;;;;;;7.32;3.45;;;;;;;;;;10385862;28;20013;-71
2022/05/05 17:03:05;;;;;;;4.47;2.72;;;;;;;;;;10384176;28;20032;-71
2022/05/05 17:08:05;;;;;;;5.93;3.35;;;;;;;;;;10413655;28;20043;-75
2022/05/05 17:13:05;;;;;;;6.30;3.43;;;;;;;;;;10402626;28;20107;-69
2022/05/05 17:18:06;;;;;;;5.90;3.50;;;;;;;;;;10396693;28;20029;-72
2022/05/05 17:23:06;;;;;;;9.82;3.40;;;;;;;;;;10391734;28;20268;-70
2022/05/05 17:28:07;;;;;;;6.17;2.80;;;;;;;;;;10392028;28;20420;-69
2022/05/05 17:33:07;;;;;;;5.33;3.37;;;;;;;;;;10411609;28;20040;-77
2022/05/05 17:38:07;;;;;;;5.80;3.10;;;;;;;;;;10394849;28;20692;-71
2022/05/05 17:43:07;;;;;;;11.57;3.95;;;;;;;;;;10393778;28;20025;-72
2022/05/05 17:53:28;;;;;;;8.77;3.75;;;;;;;;;;10437417;28;20516;-71
2022/05/05 17:58:28;;;;;;;7.72;4.75;;;;;;;;;;10436679;28;20067;-70
2022/05/05 18:03:29;;;;;;;13.23;4.43;;;;;;;;;;10436451;28;20112;-69
2022/05/05 18:08:29;;;;;;;12.63;4.38;;;;;;;;;;10418580;28;20271;-69
2022/05/05 18:13:29;;;;;;;8.32;3.90;;;;;;;;;;10437904;28;20040;-71
2022/05/05 18:18:29;;;;;;;7.47;4.07;;;;;;;;;;10434043;28;20108;-68
2022/05/05 18:23:31;;;;;;;10.35;4.75;;;;;;;;;;10409462;28;20279;-73
2022/05/05 18:28:32;;;;;;;7.97;5.10;;;;;;;;;;10435149;28;20574;-70
2022/05/05 18:33:33;;;;;;;13.07;5.28;;;;;;;;;;10405227;28;20029;-73
2022/05/05 18:38:33;;;;;;;12.80;5.17;;;;;;;;;;10436297;28;20029;-70
2022/05/05 18:43:35;;;;;;;12.48;6.43;;;;;;;;;;10431667;28;20040;-70
2022/05/05 18:48:35;;;;;;;11.60;5.72;;;;;;;;;;10428833;28;20072;-70
2022/05/05 18:53:36;;;;;;;12.75;6.20;;;;;;;;;;10426811;28;20049;-70
2022/05/05 18:58:36;;;;;;;14.40;5.90;;;;;;;;;;10428680;28;20044;-70
2022/05/05 19:03:36;;;;;;;12.57;5.27;;;;;;;;;;10428684;28;20029;-72
2022/05/05 19:08:36;;;;;;;10.52;6.53;;;;;;;;;;10425061;28;20034;-74
2022/05/05 19:13:37;;;;;;;7.75;5.22;;;;;;;;;;10405740;28;20032;-73
2022/05/05 19:18:38;;;;;;;14.90;4.75;;;;;;;;;;10417520;28;20021;-72
2022/05/05 19:23:39;;;;;;;6.10;4.43;;;;;;;;;;10407975;28;20032;-70
2022/05/05 19:28:39;;;;;;;7.50;4.20;;;;;;;;;;10406838;28;20036;-70
2022/05/05 19:33:39;;;;;;;18.17;4.97;;;;;;;;;;10414014;28;20083;-69
2022/05/05 19:38:40;;;;;;;7.63;4.60;;;;;;;;;;10409347;28;20520;-69
2022/05/05 19:43:40;;;;;;;7.53;4.63;;;;;;;;;;10423848;28;20508;-74
2022/05/05 19:48:40;;;;;;;8.35;5.25;;;;;;;;;;10414600;28;20871;-69
2022/05/05 19:53:41;;;;;;;5.32;4.03;;;;;;;;;;10406977;28;20055;-69
2022/05/05 20:04:00;;;;;;;5.55;3.58;;;;;;;;;;10442751;28;20017;-76
2022/05/05 20:09:02;;;;;;;4.78;3.75;;;;;;;;;;10420167;28;20024;-69
2022/05/05 20:14:03;;;;;;;4.88;3.67;;;;;;;;;;10442331;28;20140;-73
2022/05/05 20:19:04;;;;;;;5.00;3.55;;;;;;;;;;10420726;28;20019;-70
2022/05/05 20:24:09;;;;;;;7.80;4.45;;;;;;;;;;10415037;28;20021;-70
2022/05/05 20:29:10;;;;;;;5.22;4.03;;;;;;;;;;10408238;28;20022;-70
2022/05/05 20:34:10;;;;;;;7.18;4.53;;;;;;;;;;10407371;28;20570;-70
2022/05/05 20:39:11;;;;;;;7.43;4.57;;;;;;;;;;10403116;28;20024;-74
2022/05/05 20:44:12;;;;;;;9.68;5.25;;;;;;;;;;10407900;28;20028;-70
2022/05/05 20:49:13;;;;;;;11.80;6.20;;;;;;;;;;10410179;28;20076;-70
2022/05/05 20:54:13;;;;;;;7.85;5.13;;;;;;;;;;10404346;28;20041;-68
2022/05/05 20:59:17;;;;;;;9.23;6.00;;;;;;;;;;10411447;28;20420;-70
2022/05/05 21:04:18;;;;;;;11.32;6.13;;;;;;;;;;10405538;28;20072;-73
2022/05/05 21:09:18;;;;;;;11.20;6.85;;;;;;;;;;10405743;28;20037;-68
2022/05/05 21:14:19;;;;;;;8.15;5.38;;;;;;;;;;10411393;28;20161;-75
2022/05/05 21:19:19;;;;;;;11.70;5.43;;;;;;;;;;10409989;28;20029;-70
2022/05/05 21:29:58;;;;;;;9.45;4.88;;;;;;;;;;10349117;28;20036;-70
2022/05/05 21:34:58;;;;;;;4.77;4.03;;;;;;;;;;10392548;28;20050;-77
2022/05/05 21:39:59;;;;;;;8.52;5.32;;;;;;;;;;10409066;28;20029;-75
2022/05/05 21:45:00;;;;;;;7.20;5.28;;;;;;;;;;10405358;28;20021;-76
2022/05/05 21:50:00;;;;;;;7.03;4.45;;;;;;;;;;10394581;28;20457;-75
2022/05/05 21:55:01;;;;;;;7.25;5.30;;;;;;;;;;10432247;28;20028;-73
2022/05/05 22:00:01;;;;;;;9.55;4.72;;;;;;;;;;10425650;28;20382;-69
2022/05/05 22:05:02;;;;;;;5.80;4.68;;;;;;;;;;10428561;28;20029;-72
2022/05/05 22:10:02;;;;;;;6.97;4.43;;;;;;;;;;10425341;28;20028;-73
2022/05/05 22:15:03;;;;;;;8.77;5.07;;;;;;;;;;10430160;28;20028;-72
2022/05/05 22:20:04;;;;;;;8.23;4.97;;;;;;;;;;10454411;28;20294;-76
2022/05/05 22:25:04;;;;;;;6.55;4.68;;;;;;;;;;10424178;28;20044;-74
2022/05/05 22:30:05;;;;;;;8.70;4.15;;;;;;;;;;10446776;28;20029;-72
2022/05/05 22:35:06;;;;;;;7.35;4.72;;;;;;;;;;10435089;28;20497;-76
2022/05/05 22:45:26;;;;;;;5.18;4.32;;;;;;;;;;10439909;28;20378;-73
2022/05/05 22:50:32;;;;;;;12.55;4.88;;;;;;;;;;10445854;28;20492;-74
2022/05/05 22:55:33;;;;;;;6.85;4.65;;;;;;;;;;10436851;28;20033;-74
2022/05/05 23:00:33;;;;;;;7.22;4.68;;;;;;;;;;10424072;28;20029;-73
2022/05/05 23:05:35;;;;;;;8.07;4.97;;;;;;;;;;10428057;28;20025;-72
2022/05/05 23:10:36;;;;;;;8.90;5.43;;;;;;;;;;10427586;28;20032;-73
2022/05/05 23:15:36;;;;;;;6.15;4.95;;;;;;;;;;10420531;28;20029;-68
2022/05/05 23:20:37;;;;;;;7.75;5.90;;;;;;;;;;10408164;28;20030;-69
2022/05/05 23:25:37;;;;;;;9.98;5.38;;;;;;;;;;10411390;28;20033;-74
2022/05/05 23:30:37;;;;;;;7.77;6.07;;;;;;;;;;10406336;28;20396;-72
2022/05/05 23:41:16;;;;;;;7.73;6.13;;;;;;;;;;10355959;28;20684;-72
2022/05/05 23:46:16;;;;;;;7.05;5.22;;;;;;;;;;10390737;28;20033;-70
2022/05/05 23:56:36;;;;;;;8.45;6.00;;;;;;;;;;10419334;28;20381;-73
